Warning: Javascript must be enabled to use all the features on this page!


Page Loading - Please Wait...

* We've detected you're using a mobile device. Find our Next Generation Station Page here.
Click to hideNews Bulletins

Peak Streamflow for the Nation

USGS 10351700 TRUCKEE RV NR NIXON, NV

Washoe County, Nevada
Hydrologic Unit Code 16050103
Latitude  39°46'38.54", Longitude 119°20'15.08" NAD83
Drainage area 1,827  square miles
Gage datum 3,940.00 feet above NGVD29
Output formats
Table
Graph
Tab-separated file
peakfq (watstore) format
Reselect output format
Water
Year
Date Gage
Height
(feet)
Stream-
flow
(cfs)
1956 1955-12-24 14.10 14,0006,7
1958 1958-05-21 8.77 5,1606
1959 1959-02-17 4.81 7266
1960 1960-02-09 6.01 1,5606
1961 1961-08-25 4.12 4176
1962 1962-05-09 5.15 9206
1963 1963-02-02 14.39 14,4006
1964 1963-11-15 4.59 6156
1965 1964-12-24 11.08 9,9506
1966 1965-12-07 6.03 1,6606
1967 1967-05-22 9.25 6,3606
1968 1968-02-24 6.53 2,2106
1969 1969-01-26 8.65 5,3206
1970 1970-01-24 9.18 6,2306
1971 1971-06-27 6.68 2,4406
1972 1972-05-20 5.66 1,3306
1973 1973-01-17 6.08 1,7306
1974 1974-01-17 7.392 3,7106
1975 1975-05-15 7.57 3,8006
1976 1976-08-01 4.99 9246
1977 1977-02-21 3.97 3576
1978 1978-05-22 6.38 2,0406
1979 1979-05-16 5.77 1,4806
1980 1980-01-14 10.10 8,6006
1981 1981-05-19 6.29 2,0006
1982 1982-02-16 9.70 7,5806
1983 1983-03-14 9.58 7,4206
1984 1983-11-25 9.30 6,5606
1985 1984-11-28 5.79 1,5206
1986 1986-02-19 13.01 16,3006
1987 1987-05-18 6.11 1,7706
1988 1988-04-15 3.08 1006
1989 1989-03-12 5.17 1,0606
1990 1989-10-03 4.11 4076
1991 1991-03-05 4.76 7486
1992 1992-03-30 3.132 1086
1993 1993-05-24 6.47 2,1406
1994 1994-05-07 5.58 1,3306
1995 1995-03-11 9.56 7,2606
1996 1996-05-19 10.10 8,3406
1997 1997-01-03 15.28 21,2006
1998 1998-03-24 9.64 6,3406
1999 1999-05-27 8.58 4,6506
2000 2000-02-15 6.20 1,8906
2001 2000-11-30 4.36 5606
2002 2002-06-01 6.20 1,0306
2003 2003-05-30 5.46 1,2906
2004 2004-04-10 4.38 6096
2005 2005-05-20 7.87 3,6806
2006 2006-01-01 12.60 12,7006
2007 2006-11-15 4.62 7386
2008 2008-01-05 5.72 1,4906
2009 2009-05-06 5.95 1,6706
2010 2010-06-07 6.55 2,2106
2011 2011-06-23 7.55 3,2806
2012 2012-04-27 6.22 1,9206
2013 2012-12-03 7.55 3,2906
2014 2014-02-10 5.16 1,0706
2015 2015-02-09 5.89 1,6006
2016 2016-01-31 6.68 2,3306
2017 2017-01-09 12.97 13,5006
2018 2018-04-08 9.23 5,6006
2019 2019-02-15 9.54 6,0206
2020 2020-05-19 5.52 1,3706
?
  Peak Gage-Height Qualification Codes.
?
  Peak Streamflow Qualification Codes.